Sales, Brazil
Current Conditions -  °F | °C
As of 2:00 PM on Thursday 27 Nov 2014 (Local Time) from SBSR Reporting Station
Rain Showers Rain Showers  
Wind Chill: 84°   Ceiling: 2500
Heat Index: 86°   Visibility: 6mi
Dew Point: 66°   Wind: 2mph
Humidity: 55%   Direction: 300°WNW
Pressure: 29.91"   Gusts: NA
Location:  21.34°S, 49.49°W
Report Text: SBSR 271600Z 30002KT 9999 VCSH BKN025 FEW030TCU BKN080 29/19 Q1013
Loading
Personal Weather Stations






























Interactive Weather Map New forecast layout! Learn more

10-Day Weather Forecast

Advertisements
Track Severe Weather on mobile